Time;durP1;ratioP1;P1;durP2;ratioP2;P2;SDS_P1;SDS_P2;PMS_P1;PMS_P2;Temp;Humidity;BMP_temperature;BMP_pressure;BME280_temperature;BME280_humidity;BME280_pressure;Samples;Min_cycle;Max_cycle;Signal;HPM_P1;HPM_P2
2023/12/27 00:03:06;;;;;;;9.70;4.10;;;;;;;13.70;44.94;100323.69;10401000;28;20619;-44
2023/12/27 00:08:08;;;;;;;6.03;3.90;;;;;;;15.30;42.39;100314.84;10398530;28;20232;-43
2023/12/27 00:13:10;;;;;;;7.90;4.10;;;;;;;13.71;44.65;100368.38;10407863;28;20263;-44
2023/12/27 00:18:12;;;;;;;8.10;4.00;;;;;;;13.15;46.25;100324.09;10405551;28;20319;-44
2023/12/27 00:23:14;;;;;;;7.47;3.83;;;;;;;13.88;44.47;100403.94;10408480;28;20268;-43
2023/12/27 00:28:15;;;;;;;5.30;3.97;;;;;;;14.37;44.27;100274.81;10401162;28;20312;-43
2023/12/27 00:33:18;;;;;;;7.03;3.77;;;;;;;14.82;42.60;100316.72;10406533;28;20232;-43
2023/12/27 00:38:20;;;;;;;6.63;3.97;;;;;;;14.82;43.19;100325.63;10411406;28;20224;-44
2023/12/27 00:43:21;;;;;;;5.93;4.57;;;;;;;11.83;48.48;100264.78;10404479;28;20314;-43
2023/12/27 00:48:23;;;;;;;6.87;3.70;;;;;;;12.76;46.08;100340.56;10403450;28;20271;-43
2023/12/27 00:53:25;;;;;;;9.37;4.17;;;;;;;12.11;46.93;100322.19;10403815;28;20381;-44
2023/12/27 00:58:27;;;;;;;6.53;3.53;;;;;;;11.83;49.05;100192.38;10410315;28;20717;-43
2023/12/27 01:03:28;;;;;;;7.03;4.00;;;;;;;13.62;44.96;100332.72;10404716;28;20252;-43
2023/12/27 01:08:30;;;;;;;6.13;4.30;;;;;;;14.76;42.79;100316.44;10406047;28;20647;-43
2023/12/27 01:13:32;;;;;;;7.60;4.00;;;;;;;13.43;44.52;100393.31;10406513;28;20264;-44
2023/12/27 01:18:34;;;;;;;7.67;3.97;;;;;;;14.32;43.50;100327.56;10395799;28;20259;-43
2023/12/27 01:23:36;;;;;;;9.73;4.63;;;;;;;12.57;45.91;100427.81;10401457;28;20241;-44
2023/12/27 01:28:37;;;;;;;8.63;4.27;;;;;;;12.28;46.65;100387.31;10404227;28;20231;-44
2023/12/27 01:33:40;;;;;;;8.70;4.43;;;;;;;12.27;47.02;100377.56;10401987;28;20263;-43
2023/12/27 01:38:42;;;;;;;8.00;4.13;;;;;;;12.99;46.63;100292.06;10409057;28;20602;-43
2023/12/27 01:43:44;;;;;;;7.50;3.90;;;;;;;12.30;46.33;100392.47;10406314;28;20528;-42
2023/12/27 01:48:46;;;;;;;8.97;4.50;;;;;;;12.84;46.28;100260.72;10389612;28;20666;-40
2023/12/27 01:53:49;;;;;;;9.37;4.30;;;;;;;12.75;45.57;100363.88;10402043;28;20216;-42
2023/12/27 01:58:50;;;;;;;7.90;3.83;;;;;;;13.81;43.86;100366.22;10397414;28;20719;-41
2023/12/27 02:03:52;;;;;;;10.10;4.33;;;;;;;13.78;44.31;100345.06;10401769;28;20260;-43
2023/12/27 02:08:54;;;;;;;8.13;3.80;;;;;;;14.21;43.88;100277.78;10399430;28;20212;-43
2023/12/27 02:13:56;;;;;;;6.43;3.77;;;;;;;15.39;41.81;100310.09;10405735;28;20232;-44
2023/12/27 02:19:00;;;;;;;8.60;4.47;;;;;;;14.66;42.68;100334.84;10405948;28;20716;-43
2023/12/27 02:24:03;;;;;;;5.97;3.63;;;;;;;14.71;42.08;100386.25;10401445;28;20244;-44
2023/12/27 02:29:05;;;;;;;6.23;3.83;;;;;;;14.97;42.23;100308.50;10404528;28;20236;-43
2023/12/27 02:34:07;;;;;;;4.20;3.07;;;;;;;15.04;42.08;100334.44;10387115;28;20373;-44
2023/12/27 02:39:09;;;;;;;6.33;4.00;;;;;;;14.63;41.95;100390.94;10404987;28;20237;-44
2023/12/27 02:44:10;;;;;;;5.77;4.00;;;;;;;12.21;46.21;100284.38;10387074;28;20269;-44
2023/12/27 02:49:12;;;;;;;6.27;3.30;;;;;;;11.48;46.76;100356.31;10400677;28;20319;-44
2023/12/27 02:54:14;;;;;;;4.43;3.37;;;;;;;15.37;41.29;100304.06;10402964;28;20220;-44
2023/12/27 02:59:16;;;;;;;6.33;3.27;;;;;;;15.35;40.92;100330.38;10404870;28;20404;-44
2023/12/27 03:04:18;;;;;;;5.73;3.43;;;;;;;15.65;39.95;100373.25;10398679;28;20714;-43
2023/12/27 03:09:20;;;;;;;7.20;3.47;;;;;;;15.60;40.96;100294.78;10399937;28;20291;-44
2023/12/27 03:14:21;;;;;;;6.43;3.90;;;;;;;14.93;41.45;100365.47;10396852;28;20240;-42
2023/12/27 03:19:25;;;;;;;5.93;3.50;;;;;;;15.35;40.68;100316.91;10399545;28;20315;-40
2023/12/27 03:24:27;;;;;;;4.57;3.50;;;;;;;13.72;42.37;100391.59;10398630;28;20236;-42
2023/12/27 03:29:28;;;;;;;9.47;3.53;;;;;;;15.76;39.71;100334.88;10398238;28;20237;-39
2023/12/27 03:34:30;;;;;;;3.67;2.90;;;;;;;14.66;41.81;100302.53;10397302;28;20237;-40
2023/12/27 03:39:32;;;;;;;4.43;3.10;;;;;;;14.68;41.05;100400.13;10404847;28;20255;-43
2023/12/27 03:44:34;;;;;;;4.63;3.10;;;;;;;13.83;42.14;100380.31;10399236;28;20243;-43
2023/12/27 03:49:36;;;;;;;6.07;3.50;;;;;;;11.15;46.16;100294.88;10408235;28;20604;-44
2023/12/27 03:54:38;;;;;;;4.90;3.10;;;;;;;13.05;43.64;100203.50;10408210;28;20233;-44
2023/12/27 03:59:40;;;;;;;7.03;3.47;;;;;;;13.94;42.06;100268.66;10417802;28;20211;-43
2023/12/27 04:04:42;;;;;;;4.57;3.00;;;;;;;13.90;42.12;100253.94;10416200;28;20604;-44
2023/12/27 04:09:44;;;;;;;8.53;3.13;;;;;;;14.50;41.29;100246.28;10406865;28;20324;-42
2023/12/27 04:14:46;;;;;;;6.40;3.27;;;;;;;14.34;41.21;100295.88;10421310;28;20240;-42
2023/12/27 04:19:48;;;;;;;7.17;4.50;;;;;;;14.68;40.54;100305.84;10395435;28;20718;-43
2023/12/27 04:24:49;;;;;;;9.60;5.07;;;;;;;14.04;41.59;100331.06;10415180;28;20229;-42
2023/12/27 04:29:51;;;;;;;5.10;3.83;;;;;;;15.29;40.14;100304.25;10415553;28;20324;-37
2023/12/27 04:34:53;;;;;;;6.00;3.80;;;;;;;14.32;41.15;100339.16;10408970;28;20672;-45
2023/12/27 04:39:54;;;;;;;6.33;3.97;;;;;;;14.76;40.42;100327.22;10413648;28;20243;-42
2023/12/27 04:44:56;;;;;;;5.87;3.60;;;;;;;15.66;39.53;100270.53;10409872;28;20278;-42
2023/12/27 04:49:58;;;;;;;8.40;4.00;;;;;;;15.20;40.18;100308.16;10410384;28;20236;-43
2023/12/27 04:55:00;;;;;;;5.33;3.60;;;;;;;14.70;40.41;100313.72;10412601;28;20229;-42
2023/12/27 05:00:04;;;;;;;6.50;3.70;;;;;;;14.22;41.76;100244.44;10411711;28;20228;-42
2023/12/27 05:05:07;;;;;;;6.20;3.03;;;;;;;13.20;42.53;100345.88;10406135;28;20224;-43
2023/12/27 05:10:09;;;;;;;6.73;3.40;;;;;;;15.45;39.63;100262.59;10399293;28;20293;-44
2023/12/27 05:15:11;;;;;;;4.00;3.23;;;;;;;16.39;38.32;100317.44;10408348;28;20267;-43
2023/12/27 05:20:13;;;;;;;5.73;3.53;;;;;;;16.24;38.38;100277.13;10404237;28;20229;-43
2023/12/27 05:25:15;;;;;;;4.70;3.37;;;;;;;15.25;39.46;100327.25;10413515;28;20221;-43
2023/12/27 05:30:17;;;;;;;6.00;3.20;;;;;;;15.29;39.42;100342.00;10413291;28;20228;-43
2023/12/27 05:35:19;;;;;;;4.20;3.37;;;;;;;13.55;42.29;100235.00;10411969;28;20675;-44
2023/12/27 05:40:20;;;;;;;5.73;3.97;;;;;;;13.40;42.85;100205.53;10414011;28;20334;-43
2023/12/27 05:45:22;;;;;;;5.30;3.83;;;;;;;14.10;41.94;100149.16;10410280;28;20752;-43
2023/12/27 05:50:24;;;;;;;7.37;4.20;;;;;;;14.60;41.06;100184.81;10400207;28;20235;-44
2023/12/27 05:55:26;;;;;;;7.83;4.13;;;;;;;14.91;40.26;100229.28;10413963;28;20308;-43
2023/12/27 06:00:27;;;;;;;8.73;3.40;;;;;;;15.69;39.21;100250.41;10406772;28;20319;-43
2023/12/27 06:05:29;;;;;;;6.03;3.30;;;;;;;14.42;40.39;100295.72;10413130;28;20244;-43
2023/12/27 06:10:32;;;;;;;6.23;3.97;;;;;;;15.04;40.19;100205.06;10404331;28;20232;-44
2023/12/27 06:15:33;;;;;;;4.30;3.77;;;;;;;15.77;38.86;100233.16;10409390;28;20228;-44
2023/12/27 06:20:35;;;;;;;9.37;3.30;;;;;;;14.81;40.00;100285.38;10405848;28;20312;-43
2023/12/27 06:25:37;;;;;;;8.00;4.30;;;;;;;14.65;40.58;100211.16;10410574;28;20246;-44
2023/12/27 06:30:39;;;;;;;7.63;3.90;;;;;;;16.16;38.36;100212.56;10410163;28;20311;-43
2023/12/27 06:35:41;;;;;;;7.13;3.47;;;;;;;15.39;39.05;100249.94;10409717;28;20232;-42
2023/12/27 06:40:43;;;;;;;7.73;3.50;;;;;;;16.29;38.13;100209.03;10408092;28;20249;-44
2023/12/27 06:45:45;;;;;;;7.90;4.03;;;;;;;15.92;38.20;100268.03;10390549;28;20282;-43
2023/12/27 06:50:48;;;;;;;6.27;3.70;;;;;;;15.39;38.99;100304.69;10404861;28;20262;-43
2023/12/27 06:55:50;;;;;;;5.33;4.03;;;;;;;15.87;38.20;100272.19;10411206;28;20311;-44
2023/12/27 07:00:51;;;;;;;9.20;5.00;;;;;;;15.17;39.47;100238.47;10400060;28;20229;-43
2023/12/27 07:05:53;;;;;;;6.30;4.80;;;;;;;15.32;39.18;100282.28;10400153;28;20448;-40
2023/12/27 07:10:55;;;;;;;6.00;4.90;;;;;;;15.77;38.36;100260.16;10411535;28;20246;-40
2023/12/27 07:15:57;;;;;;;9.03;5.60;;;;;;;15.86;38.51;100262.44;10400055;28;20240;-40
2023/12/27 07:20:59;;;;;;;43.33;28.63;;;;;;;14.65;39.49;100317.00;10406240;28;20228;-43
2023/12/27 07:26:01;;;;;;;14.70;10.27;;;;;;;14.89;39.85;100280.66;10413364;28;20592;-43
2023/12/27 07:31:03;;;;;;;12.60;7.60;;;;;;;15.14;39.04;100299.00;10408772;28;20245;-43
2023/12/27 07:36:06;;;;;;;12.73;7.30;;;;;;;15.37;38.86;100235.81;10407629;28;20228;-43
2023/12/27 07:41:08;;;;;;;7.60;4.63;;;;;;;14.66;40.15;100169.69;10410725;28;20237;-44
2023/12/27 07:46:10;;;;;;;8.63;4.40;;;;;;;14.68;39.91;100211.56;10389282;28;20231;-42
2023/12/27 07:51:12;;;;;;;8.50;5.30;;;;;;;14.97;39.45;100198.00;10405671;28;20274;-43
2023/12/27 07:56:15;;;;;;;8.27;5.47;;;;;;;15.56;38.24;100239.63;10409094;28;20232;-44
2023/12/27 08:01:17;;;;;;;6.83;4.30;;;;;;;16.10;37.85;100213.44;10405779;28;20228;-43
2023/12/27 08:06:26;;;;;;;7.20;4.17;;;;;;;15.69;38.46;100242.31;10401699;28;20395;-43
2023/12/27 08:11:28;;;;;;;8.43;4.00;;;;;;;15.69;38.57;100255.81;10406253;28;21061;-43
2023/12/27 08:16:29;;;;;;;5.30;4.17;;;;;;;15.05;39.08;100287.59;10403079;28;20298;-43
2023/12/27 08:21:31;;;;;;;6.43;4.57;;;;;;;14.31;39.74;100248.66;10407556;28;20232;-42
2023/12/27 08:26:33;;;;;;;9.07;4.50;;;;;;;15.24;39.12;100132.31;10405470;28;20232;-44
2023/12/27 08:31:34;;;;;;;9.07;5.50;;;;;;;13.23;40.80;100304.38;10403462;28;20232;-43
2023/12/27 08:36:36;;;;;;;11.33;6.83;;;;;;;13.29;41.83;100204.19;10406532;28;20236;-42
2023/12/27 08:41:38;;;;;;;8.57;5.90;;;;;;;15.04;40.06;100104.53;10405624;28;20229;-44
2023/12/27 08:46:40;;;;;;;7.90;5.00;;;;;;;13.32;41.86;100178.78;10386185;28;20313;-43
2023/12/27 08:51:41;;;;;;;10.03;5.30;;;;;;;13.17;42.99;100112.47;10402373;28;20323;-44
2023/12/27 08:56:43;;;;;;;9.77;5.97;;;;;;;14.33;40.90;100125.47;10406374;28;20603;-44
2023/12/27 09:01:45;;;;;;;11.37;6.90;;;;;;;12.90;43.08;100171.31;10402681;28;20228;-44
2023/12/27 09:06:47;;;;;;;18.87;6.70;;;;;;;14.64;41.27;100132.19;10385317;28;20549;-44
2023/12/27 09:11:48;;;;;;;8.83;5.37;;;;;;;13.15;43.86;100059.97;10403200;28;20701;-44
2023/12/27 09:16:50;;;;;;;11.77;7.27;;;;;;;15.16;40.82;100078.59;10402589;28;20232;-43
2023/12/27 09:21:52;;;;;;;7.73;4.03;;;;;;;13.72;41.74;100187.19;10399629;28;20240;-44
2023/12/27 09:26:53;;;;;;;6.83;3.60;;;;;;;11.92;44.75;100110.84;10403823;28;20607;-43
2023/12/27 09:31:55;;;;;;;8.53;3.97;;;;;;;12.44;44.00;99967.63;10393104;28;20786;-44
2023/12/27 09:36:57;;;;;;;8.83;5.43;;;;;;;12.21;43.38;100103.78;10400111;28;20658;-44
2023/12/27 09:41:59;;;;;;;4.20;3.73;;;;;;;11.10;45.27;100056.19;10386385;28;20698;-44
2023/12/27 09:47:02;;;;;;;7.83;4.70;;;;;;;13.33;42.49;100006.59;10391289;28;20250;-43
2023/12/27 09:52:05;;;;;;;6.90;4.47;;;;;;;13.37;42.50;100023.16;10372790;28;20231;-44
2023/12/27 09:57:07;;;;;;;9.30;3.93;;;;;;;13.79;41.67;100056.28;10395901;28;20309;-44
2023/12/27 10:02:16;;;;;;;5.80;3.90;;;;;;;13.92;42.07;100053.66;10396651;28;20236;-43
2023/12/27 10:07:21;;;;;;;10.20;6.60;;;;;;;13.06;43.49;100075.41;10396303;28;20233;-43
2023/12/27 10:12:24;;;;;;;4.83;3.97;;;;;;;11.86;45.45;100020.41;10395564;28;20228;-44
2023/12/27 10:17:27;;;;;;;8.33;4.10;;;;;;;12.79;43.19;100126.19;10394584;28;20237;-42
2023/12/27 10:22:29;;;;;;;7.17;3.50;;;;;;;14.59;40.91;100006.25;10397580;28;20307;-43
2023/12/27 10:27:31;;;;;;;5.60;3.47;;;;;;;13.12;42.09;100120.28;10399841;28;20328;-43
2023/12/27 10:32:33;;;;;;;5.03;3.67;;;;;;;14.79;40.06;100064.66;10406906;28;20614;-43
2023/12/27 10:37:37;;;;;;;10.33;4.40;;;;;;;13.49;42.26;99981.22;10388704;28;20363;-44
2023/12/27 10:42:41;;;;;;;5.80;3.80;;;;;;;14.67;40.60;99990.91;10396876;28;20229;-44
2023/12/27 10:47:46;;;;;;;7.73;5.30;;;;;;;14.48;40.39;99966.47;10395999;28;20244;-41
2023/12/27 10:52:59;;;;;;;7.70;4.83;;;;;;;13.29;41.50;99981.97;10390859;28;20240;-41
2023/12/27 10:58:03;;;;;;;7.20;4.77;;;;;;;14.39;40.71;99928.16;10394526;28;20228;-41
2023/12/27 11:06:17;;;;;;;5.80;3.70;;;;;;;12.31;43.64;99986.25;10571256;27;20320;-77
2023/12/27 11:11:21;;;;;;;6.70;4.10;;;;;;;11.20;45.73;99884.53;10512083;28;20226;-77
2023/12/27 11:16:27;;;;;;;8.10;4.67;;;;;;;12.81;42.96;99946.06;10520559;27;20234;-77
2023/12/27 11:21:29;;;;;;;9.70;4.67;;;;;;;13.38;42.33;99920.81;10546032;27;20248;-76
2023/12/27 11:26:36;;;;;;;9.80;4.67;;;;;;;13.84;41.60;99892.44;10548970;27;20232;-77
2023/12/27 11:31:38;;;;;;;9.50;4.53;;;;;;;12.72;43.55;99897.03;10546001;27;21008;-78
2023/12/27 11:36:44;;;;;;;6.97;4.10;;;;;;;13.17;41.81;99958.50;10548303;27;20233;-77
2023/12/27 11:41:47;;;;;;;10.23;4.70;;;;;;;12.42;43.20;99975.03;10552358;27;20540;-78
2023/12/27 11:46:49;;;;;;;7.87;4.30;;;;;;;14.42;41.40;99856.88;10554397;27;20231;-77
2023/12/27 11:51:51;;;;;;;7.00;4.97;;;;;;;12.90;42.61;99929.59;10521214;28;20230;-78
2023/12/27 11:56:53;;;;;;;9.57;5.47;;;;;;;14.39;41.35;99866.22;10511640;28;20286;-78
2023/12/27 12:01:58;;;;;;;8.13;4.80;;;;;;;11.99;43.20;99887.31;10529611;28;20238;-79
2023/12/27 12:07:19;;;;;;;7.37;5.30;;;;;;;12.33;43.29;99839.31;10549235;27;20242;-75
2023/12/27 12:12:23;;;;;;;6.50;4.33;;;;;;;14.76;40.17;99799.25;10550820;27;20226;-78
2023/12/27 12:17:26;;;;;;;5.13;3.00;;;;;;;12.91;40.98;99963.50;10521059;28;20230;-77
2023/12/27 12:22:30;;;;;;;4.37;3.00;;;;;;;13.33;41.08;99837.28;10516850;28;20237;-78
2023/12/27 12:27:31;;;;;;;6.53;3.80;;;;;;;14.46;40.04;99865.38;10519942;28;20242;-78
2023/12/27 12:32:39;;;;;;;8.43;4.03;;;;;;;13.47;40.43;99980.59;10524122;28;20721;-74
2023/12/27 12:37:41;;;;;;;6.63;3.60;;;;;;;14.60;40.00;99880.50;10523449;28;20234;-75
2023/12/27 12:42:44;;;;;;;6.63;5.00;;;;;;;14.37;39.74;99919.44;10508152;28;20238;-75
2023/12/27 12:47:46;;;;;;;7.17;4.80;;;;;;;15.25;39.20;99894.06;10500605;28;20234;-75
2023/12/27 12:52:49;;;;;;;10.93;6.57;;;;;;;15.19;38.83;99935.34;10499957;28;20226;-75
2023/12/27 12:57:51;;;;;;;9.63;6.63;;;;;;;15.52;38.59;99915.50;10507183;28;20762;-76
2023/12/27 13:02:53;;;;;;;10.70;4.40;;;;;;;15.23;39.00;99887.22;10514187;28;20226;-75
2023/12/27 13:07:55;;;;;;;6.83;4.33;;;;;;;15.81;38.48;99838.63;10508787;28;20235;-75
2023/12/27 13:12:57;;;;;;;6.53;4.20;;;;;;;15.52;38.64;99862.41;10511943;28;20238;-75
2023/12/27 13:17:59;;;;;;;5.97;3.53;;;;;;;16.07;37.65;99891.56;10510869;28;20231;-77
2023/12/27 13:23:02;;;;;;;8.53;4.17;;;;;;;15.38;38.57;99928.22;10520837;28;20257;-76
2023/12/27 13:28:04;;;;;;;8.00;4.73;;;;;;;15.73;38.68;99835.38;10422020;22;20243;-35
2023/12/27 13:33:12;;;;;;;5.13;3.70;;;;;;;14.11;40.85;99791.09;10387423;28;20677;-34
2023/12/27 13:38:14;;;;;;;7.20;4.10;;;;;;;15.03;38.98;99895.38;10366566;28;20237;-34
2023/12/27 13:43:16;;;;;;;5.03;3.10;;;;;;;13.73;41.64;99774.69;10372395;28;20229;-37
2023/12/27 13:48:18;;;;;;;7.97;4.77;;;;;;;13.92;41.74;99703.94;10362341;28;20256;-36
2023/12/27 13:53:23;;;;;;;9.03;4.37;;;;;;;14.14;40.57;99771.84;10367278;28;20310;-35
2023/12/27 13:58:25;;;;;;;4.43;3.63;;;;;;;12.95;41.90;99743.69;10358103;28;20261;-37
2023/12/27 14:03:30;;;;;;;6.13;4.37;;;;;;;11.53;42.84;99846.59;10353677;28;20248;-37
2023/12/27 14:08:32;;;;;;;5.90;4.07;;;;;;;13.19;41.58;99765.66;10358119;28;20240;-34
2023/12/27 14:13:34;;;;;;;7.00;3.47;;;;;;;14.33;40.21;99734.34;10360754;28;20237;-35
2023/12/27 14:18:36;;;;;;;4.10;3.10;;;;;;;14.18;39.54;99766.84;10361733;28;20348;-37
2023/12/27 14:23:38;;;;;;;5.80;3.57;;;;;;;13.96;39.72;99771.59;10355738;28;20237;-34
2023/12/27 14:28:40;;;;;;;5.60;3.57;;;;;;;14.20;39.18;99848.19;10362350;28;21590;-37
2023/12/27 14:33:43;;;;;;;6.33;3.03;;;;;;;14.06;40.23;99701.25;10354811;28;20645;-37
2023/12/27 14:38:45;;;;;;;6.53;3.60;;;;;;;15.08;38.03;99764.34;10354273;28;20745;-35
2023/12/27 14:43:47;;;;;;;30.47;16.93;;;;;;;13.18;40.64;99813.22;10358494;28;20229;-37
2023/12/27 14:48:49;;;;;;;10.90;7.13;;;;;;;14.31;39.95;99748.00;10358793;28;20277;-37
2023/12/27 14:53:51;;;;;;;14.80;9.43;;;;;;;14.71;39.58;99736.28;10357834;28;20229;-37
2023/12/27 14:58:52;;;;;;;12.47;7.57;;;;;;;14.29;39.89;99806.59;10360920;28;20256;-35
2023/12/27 15:03:54;;;;;;;7.83;5.60;;;;;;;14.31;39.68;99764.16;10360005;28;20321;-37
2023/12/27 15:08:57;;;;;;;8.43;5.37;;;;;;;15.03;38.58;99774.09;10360313;28;20213;-37
2023/12/27 15:13:59;;;;;;;8.77;5.50;;;;;;;13.19;40.72;99857.00;10357787;28;20600;-35
2023/12/27 15:19:01;;;;;;;9.47;5.50;;;;;;;14.58;39.66;99707.56;10360548;28;20259;-37
2023/12/27 15:24:03;;;;;;;8.37;5.13;;;;;;;15.23;38.60;99723.63;10358366;28;20237;-37
2023/12/27 15:29:05;;;;;;;6.40;4.60;;;;;;;15.43;38.26;99776.59;10359294;28;20233;-36
2023/12/27 15:34:07;;;;;;;26.97;18.33;;;;;;;13.91;40.05;99772.22;10359716;28;20249;-43
2023/12/27 15:39:10;;;;;;;15.27;9.70;;;;;;;15.48;38.09;99742.53;10352917;28;21290;-43
2023/12/27 15:44:12;;;;;;;12.80;7.87;;;;;;;14.97;38.61;99729.19;10349175;28;20306;-41
2023/12/27 15:49:14;;;;;;;8.63;6.40;;;;;;;14.32;39.30;99787.31;10355424;28;20243;-42
2023/12/27 15:54:16;;;;;;;7.60;4.70;;;;;;;15.14;38.53;99714.97;10364129;28;20237;-42
2023/12/27 15:59:19;;;;;;;7.40;6.10;;;;;;;15.06;38.00;99774.50;10356740;28;20723;-42
2023/12/27 16:04:21;;;;;;;9.37;7.80;;;;;;;15.27;37.90;99742.91;10363226;28;20265;-43
2023/12/27 16:09:23;;;;;;;11.67;7.13;;;;;;;15.15;37.87;99764.31;10362241;28;20259;-42
2023/12/27 16:14:25;;;;;;;6.70;5.07;;;;;;;15.10;38.10;99746.09;10366050;28;20237;-42
2023/12/27 16:19:26;;;;;;;37.27;30.33;;;;;;;13.87;39.84;99687.59;10363094;28;20228;-42
2023/12/27 16:24:28;;;;;;;27.03;23.00;;;;;;;14.54;38.57;99742.16;10362089;28;20249;-42
2023/12/27 16:29:31;;;;;;;21.47;15.43;;;;;;;14.05;39.20;99716.53;10369396;28;20699;-41
2023/12/27 16:34:33;;;;;;;29.90;18.27;;;;;;;13.32;40.07;99738.84;10365339;28;20244;-42
2023/12/27 16:39:35;;;;;;;34.17;24.63;;;;;;;14.21;39.04;99704.56;10364543;28;20237;-42
2023/12/27 16:44:36;;;;;;;18.80;12.87;;;;;;;13.98;39.27;99711.16;10363637;28;20381;-43
2023/12/27 16:49:38;;;;;;;7.80;5.40;;;;;;;14.17;38.50;99773.25;10363806;28;20737;-42
2023/12/27 16:54:40;;;;;;;10.20;7.90;;;;;;;13.33;39.55;99828.34;10365837;28;20616;-42
2023/12/27 16:59:42;;;;;;;8.10;6.23;;;;;;;14.10;38.61;99783.22;10334336;28;20750;-42
2023/12/27 17:04:44;;;;;;;9.43;6.20;;;;;;;14.37;38.45;99703.25;10363946;28;20669;-43
2023/12/27 17:09:45;;;;;;;9.23;6.63;;;;;;;14.47;38.39;99713.59;10362760;28;20237;-44
2023/12/27 17:14:51;;;;;;;13.33;9.83;;;;;;;13.06;40.66;99724.31;10350669;28;20331;-43
2023/12/27 17:19:53;;;;;;;19.60;13.50;;;;;;;13.02;40.37;99698.84;10353512;28;20629;-42
2023/12/27 17:24:55;;;;;;;13.70;10.23;;;;;;;13.37;40.01;99626.19;10362347;28;20233;-42
2023/12/27 17:29:56;;;;;;;15.60;8.87;;;;;;;13.39;40.04;99685.94;10355988;28;20305;-42
2023/12/27 17:34:58;;;;;;;10.03;7.40;;;;;;;12.17;42.33;99596.34;10358073;28;20935;-42
2023/12/27 17:40:00;;;;;;;10.73;8.53;;;;;;;11.93;42.34;99621.78;10364657;28;21004;-42
2023/12/27 17:45:03;;;;;;;14.73;9.97;;;;;;;11.45;43.35;99545.56;10356156;28;20661;-41
2023/12/27 17:50:06;;;;;;;17.97;12.37;;;;;;;11.39;42.58;99666.94;10359621;28;20244;-42
2023/12/27 17:55:08;;;;;;;33.00;21.30;;;;;;;12.06;42.48;99525.31;10370048;28;20722;-42
2023/12/27 18:00:12;;;;;;;28.00;17.53;;;;;;;10.37;44.56;99598.31;10357758;28;20242;-42
2023/12/27 18:05:14;;;;;;;12.83;9.07;;;;;;;11.01;43.94;99506.53;10358386;28;20237;-42
2023/12/27 18:10:15;;;;;;;13.90;8.27;;;;;;;10.25;44.62;99589.94;10345661;28;20216;-42
2023/12/27 18:15:17;;;;;;;12.97;9.40;;;;;;;10.79;43.47;99604.75;10364004;28;20238;-43
2023/12/27 18:20:19;;;;;;;19.33;14.87;;;;;;;11.99;41.98;99541.38;10358769;28;20255;-42
2023/12/27 18:25:21;;;;;;;26.00;18.97;;;;;;;11.70;41.84;99581.84;10356465;28;20242;-42
2023/12/27 18:30:23;;;;;;;15.43;12.43;;;;;;;12.26;41.21;99557.56;10358852;28;20244;-42
2023/12/27 18:35:25;;;;;;;14.03;10.53;;;;;;;10.50;44.28;99538.78;10356833;28;20225;-42
2023/12/27 18:40:27;;;;;;;15.63;10.90;;;;;;;10.77;44.82;99458.78;10353325;28;20698;-43
2023/12/27 18:45:29;;;;;;;11.70;8.90;;;;;;;11.05;42.74;99581.94;10359912;28;20628;-42
2023/12/27 18:50:31;;;;;;;14.83;10.97;;;;;;;7.98;48.65;99599.38;10356138;28;20205;-42
2023/12/27 18:55:33;;;;;;;11.77;8.47;;;;;;;8.79;48.09;99413.22;10358461;28;20233;-42
2023/12/27 19:00:34;;;;;;;10.53;8.43;;;;;;;9.55;45.59;99577.84;10360972;28;20626;-42
2023/12/27 19:05:36;;;;;;;14.97;10.47;;;;;;;10.74;44.86;99454.59;10356993;28;20237;-42
2023/12/27 19:10:38;;;;;;;13.60;8.37;;;;;;;10.06;45.17;99563.78;10359444;28;20278;-42
2023/12/27 19:15:39;;;;;;;8.93;7.10;;;;;;;11.35;43.12;99448.66;10354516;28;20343;-43
2023/12/27 19:20:41;;;;;;;9.27;7.73;;;;;;;9.92;44.49;99562.75;10356370;28;20238;-44
2023/12/27 19:25:43;;;;;;;16.30;10.80;;;;;;;8.48;47.64;99536.81;10363977;28;20360;-44
2023/12/27 19:30:46;;;;;;;13.67;8.60;;;;;;;7.91;48.70;99542.44;10368027;28;20217;-42
2023/12/27 19:35:48;;;;;;;14.03;8.53;;;;;;;9.84;44.64;99598.44;10366725;28;20311;-42
2023/12/27 19:40:50;;;;;;;10.60;8.40;;;;;;;8.36;46.67;99663.56;10365737;28;20549;-43
2023/12/27 19:45:52;;;;;;;9.47;6.80;;;;;;;6.21;51.46;99599.78;10358683;28;20328;-43
2023/12/27 19:50:54;;;;;;;10.20;6.77;;;;;;;6.78;51.34;99423.59;10364475;28;20225;-43
2023/12/27 19:55:56;;;;;;;7.80;6.57;;;;;;;7.39;50.22;99420.47;10372209;28;20467;-43
2023/12/27 20:00:59;;;;;;;12.33;6.83;;;;;;;11.42;43.25;99467.44;10369326;28;20233;-43
2023/12/27 20:06:04;;;;;;;8.63;6.20;;;;;;;10.64;43.67;99594.06;10363955;28;20245;-43
2023/12/27 20:11:06;;;;;;;10.53;6.60;;;;;;;11.25;42.66;99545.47;10366338;28;20267;-43
2023/12/27 20:16:08;;;;;;;17.80;12.40;;;;;;;9.56;44.73;99592.88;10364126;28;20233;-43
2023/12/27 20:21:10;;;;;;;13.13;10.43;;;;;;;8.40;46.48;99608.84;10362324;28;20235;-42
2023/12/27 20:26:11;;;;;;;12.23;8.47;;;;;;;8.52;46.23;99571.97;10368841;28;20295;-43
2023/12/27 20:31:13;;;;;;;15.07;10.03;;;;;;;8.60;45.62;99611.91;10362942;28;20703;-43
2023/12/27 20:36:15;;;;;;;18.00;11.20;;;;;;;9.61;44.77;99494.28;10364933;28;20345;-44
2023/12/27 20:41:19;;;;;;;18.47;10.90;;;;;;;8.92;44.92;99627.94;10367431;28;20229;-43
2023/12/27 20:46:21;;;;;;;13.80;10.23;;;;;;;9.06;45.15;99546.25;10360568;28;20344;-44
2023/12/27 20:51:22;;;;;;;12.57;9.43;;;;;;;8.23;45.64;99671.25;10362059;28;20333;-43
2023/12/27 20:56:24;;;;;;;13.60;9.57;;;;;;;9.22;44.64;99552.28;10368959;28;20233;-43
2023/12/27 21:01:26;;;;;;;13.33;8.83;;;;;;;8.59;45.22;99636.94;10358423;28;20378;-43
2023/12/27 21:06:28;;;;;;;14.13;8.60;;;;;;;9.47;43.87;99557.41;10361163;28;20247;-43
2023/12/27 21:11:36;;;;;;;16.40;11.23;;;;;;;9.08;44.43;99590.47;10363036;28;20225;-42
2023/12/27 21:16:39;;;;;;;13.80;9.30;;;;;;;8.85;44.34;99635.78;10361703;28;20237;-43
2023/12/27 21:21:44;;;;;;;17.77;11.43;;;;;;;9.20;43.38;99639.75;10360198;28;20305;-43
2023/12/27 21:26:46;;;;;;;21.07;11.60;;;;;;;8.57;44.19;99681.66;10358007;28;20328;-43
2023/12/27 21:31:48;;;;;;;12.40;8.37;;;;;;;8.58;43.87;99719.81;10352606;28;20252;-43
2023/12/27 21:36:50;;;;;;;14.07;9.10;;;;;;;9.09;43.58;99600.13;10354256;28;20430;-43
2023/12/27 21:41:54;;;;;;;11.17;8.40;;;;;;;9.73;43.09;99516.84;10353702;28;20241;-43
2023/12/27 21:46:55;;;;;;;9.50;8.30;;;;;;;9.65;42.25;99669.25;10358354;28;20260;-43
2023/12/27 21:51:57;;;;;;;8.87;7.53;;;;;;;9.34;43.30;99603.41;10358256;28;20229;-43
2023/12/27 21:56:59;;;;;;;10.43;7.40;;;;;;;10.22;41.48;99693.78;10358029;28;20268;-43
2023/12/27 22:02:01;;;;;;;11.10;7.83;;;;;;;10.04;41.94;99700.31;10353808;28;20769;-43
2023/12/27 22:07:03;;;;;;;10.47;7.90;;;;;;;11.19;40.68;99679.31;10354218;28;20299;-43
2023/12/27 22:12:08;;;;;;;7.77;6.80;;;;;;;10.84;40.47;99661.22;10358850;28;20661;-43
2023/12/27 22:17:10;;;;;;;10.70;7.93;;;;;;;9.61;41.88;99715.22;10359937;28;20374;-43
2023/12/27 22:22:13;;;;;;;7.63;6.47;;;;;;;9.26;42.40;99754.84;10356457;28;20229;-43
2023/12/27 22:27:14;;;;;;;10.53;7.47;;;;;;;10.18;41.51;99695.97;10357619;28;20233;-43
2023/12/27 22:32:16;;;;;;;11.23;8.37;;;;;;;9.84;41.37;99817.59;10356208;28;20242;-43
2023/12/27 22:37:18;;;;;;;11.10;8.90;;;;;;;9.52;41.79;99754.53;10356887;28;20264;-43
2023/12/27 22:42:20;;;;;;;9.07;7.70;;;;;;;11.54;39.87;99656.16;10356168;28;20295;-43
2023/12/27 22:47:24;;;;;;;8.23;7.30;;;;;;;11.55;38.68;99813.22;10354894;28;20242;-44
2023/12/27 22:52:26;;;;;;;12.17;7.73;;;;;;;12.03;38.44;99723.34;10353371;28;20233;-43
2023/12/27 22:57:28;;;;;;;9.47;7.33;;;;;;;9.54;40.99;99884.22;10360183;28;20395;-43
2023/12/27 23:02:30;;;;;;;10.73;7.50;;;;;;;11.47;39.52;99690.06;10355098;28;20248;-43
2023/12/27 23:07:32;;;;;;;8.83;7.10;;;;;;;8.65;42.60;99694.09;10353765;28;20237;-43
2023/12/27 23:12:34;;;;;;;9.63;7.27;;;;;;;10.74;40.51;99638.44;10350392;28;20244;-43
2023/12/27 23:17:38;;;;;;;10.03;6.87;;;;;;;8.66;42.00;99765.13;10353601;28;20256;-43